createdAt,value
2023-05-18T00:00:39.437Z,7.43
2023-05-18T00:03:08.767Z,8.82
2023-05-18T00:05:38.562Z,8.05
2023-05-18T00:08:08.750Z,8.32
2023-05-18T00:10:39.200Z,8.00
2023-05-18T00:13:09.630Z,7.82
2023-05-18T00:15:40.334Z,8.50
2023-05-18T00:18:09.429Z,8.23
2023-05-18T00:20:38.569Z,8.32
2023-05-18T00:23:11.372Z,9.10
2023-05-18T00:25:40.411Z,8.57
2023-05-18T00:28:10.168Z,8.35
2023-05-18T00:30:40.925Z,8.40
2023-05-18T00:33:10.020Z,8.77
2023-05-18T00:35:39.142Z,8.23
2023-05-18T00:38:08.421Z,8.07
2023-05-18T00:40:37.484Z,8.55
2023-05-18T00:43:06.650Z,8.00
2023-05-18T00:45:35.858Z,8.48
2023-05-18T00:48:07.503Z,8.45
2023-05-18T00:50:37.428Z,8.50
2023-05-18T00:53:06.543Z,9.07
2023-05-18T00:55:35.683Z,7.68
2023-05-18T00:58:06.240Z,8.80
2023-05-18T01:00:38.526Z,8.02
2023-05-18T01:03:12.047Z,8.18
2023-05-18T01:05:41.838Z,7.80
2023-05-18T01:08:10.981Z,7.80
2023-05-18T01:10:42.966Z,7.70
2023-05-18T01:13:22.946Z,7.50
2023-05-18T01:15:56.105Z,7.82
2023-05-18T01:18:32.625Z,8.40
2023-05-18T01:21:14.491Z,8.38
2023-05-18T01:24:05.125Z,8.02
2023-05-18T01:26:40.202Z,8.05
2023-05-18T01:29:13.781Z,7.80
2023-05-18T01:31:43.377Z,7.75
2023-05-18T01:34:12.433Z,7.70
2023-05-18T01:36:41.502Z,7.25
2023-05-18T01:39:11.559Z,6.72
2023-05-18T01:41:52.608Z,6.97
2023-05-18T01:44:25.150Z,7.03
2023-05-18T01:46:59.265Z,6.78
2023-05-18T01:49:34.832Z,7.03
2023-05-18T01:52:07.584Z,7.40
2023-05-18T01:54:40.449Z,6.45
2023-05-18T01:57:12.396Z,8.35
2023-05-18T01:59:42.381Z,7.88
2023-05-18T02:02:12.512Z,7.43
2023-05-18T02:04:41.615Z,7.20
2023-05-18T02:07:10.747Z,7.60
2023-05-18T02:09:39.753Z,7.05
2023-05-18T02:12:10.736Z,6.93
2023-05-18T02:14:39.770Z,7.25
2023-05-18T02:17:09.234Z,7.25
2023-05-18T02:19:41.612Z,6.97
2023-05-18T02:22:10.706Z,6.97
2023-05-18T02:24:39.866Z,6.90
2023-05-18T02:27:10.642Z,7.00
2023-05-18T02:29:39.625Z,6.68
2023-05-18T02:32:09.572Z,6.47
2023-05-18T02:34:39.244Z,6.88
2023-05-18T02:37:08.430Z,6.50
2023-05-18T02:39:37.476Z,6.32
2023-05-18T02:42:07.022Z,7.10
2023-05-18T02:44:37.705Z,6.45
2023-05-18T02:47:07.216Z,6.72
2023-05-18T02:49:36.307Z,7.15
2023-05-18T02:52:05.578Z,6.78
2023-05-18T02:54:34.678Z,6.88
2023-05-18T02:57:03.672Z,6.72
2023-05-18T02:59:32.733Z,6.72
2023-05-18T03:02:03.847Z,6.45
2023-05-18T03:04:33.028Z,6.75
2023-05-18T03:07:03.873Z,7.03
2023-05-18T03:09:32.921Z,6.72
2023-05-18T03:12:02.223Z,7.03
2023-05-18T03:14:31.398Z,8.07
2023-05-18T03:17:01.378Z,8.00
2023-05-18T03:19:32.096Z,6.70
2023-05-18T03:22:01.136Z,7.78
2023-05-18T03:24:31.084Z,7.53
2023-05-18T03:27:01.853Z,8.05
2023-05-18T03:29:31.711Z,7.60
2023-05-18T03:32:00.905Z,7.72
2023-05-18T03:34:31.673Z,7.65
2023-05-18T03:37:00.868Z,7.72
2023-05-18T03:39:29.941Z,8.38
2023-05-18T03:41:59.470Z,8.45
2023-05-18T03:44:28.564Z,8.55
2023-05-18T03:46:57.799Z,8.45
2023-05-18T03:49:26.885Z,8.02
2023-05-18T03:51:57.661Z,8.77
2023-05-18T03:54:27.087Z,8.65
2023-05-18T03:56:56.348Z,8.60
2023-05-18T03:59:25.451Z,8.20
2023-05-18T04:01:54.884Z,8.32
2023-05-18T04:04:24.361Z,8.70
2023-05-18T04:06:53.551Z,9.30
2023-05-18T04:09:25.134Z,9.48
2023-05-18T04:11:54.219Z,9.10
2023-05-18T04:14:25.588Z,9.50
2023-05-18T04:16:54.624Z,9.00
2023-05-18T04:19:23.786Z,10.43
2023-05-18T04:21:53.455Z,9.55
2023-05-18T04:24:24.433Z,9.90
2023-05-18T04:26:53.527Z,10.95
2023-05-18T04:29:23.303Z,11.18
2023-05-18T04:31:54.545Z,11.45
2023-05-18T04:34:25.163Z,11.18
2023-05-18T04:37:00.461Z,11.02
2023-05-18T04:39:31.270Z,12.43
2023-05-18T04:42:00.460Z,12.20
2023-05-18T04:44:30.311Z,12.80
2023-05-18T04:47:00.208Z,13.05
2023-05-18T04:49:29.332Z,12.75
2023-05-18T04:51:59.813Z,12.77
2023-05-18T04:54:33.984Z,13.63
2023-05-18T04:57:04.490Z,12.30
2023-05-18T04:59:37.773Z,10.93
2023-05-18T05:02:07.195Z,9.65
2023-05-18T05:04:36.268Z,8.95
2023-05-18T05:07:05.446Z,7.97
2023-05-18T05:09:36.108Z,7.35
2023-05-18T05:12:05.520Z,6.35
2023-05-18T05:14:34.655Z,6.35
2023-05-18T05:17:03.681Z,6.00
2023-05-18T05:19:32.753Z,5.35
2023-05-18T05:22:01.914Z,5.75
2023-05-18T05:24:30.943Z,5.70
2023-05-18T05:27:02.134Z,6.65
2023-05-18T05:29:31.295Z,6.47
2023-05-18T05:32:00.364Z,8.18
2023-05-18T05:34:29.509Z,7.28
2023-05-18T05:36:58.498Z,6.68
2023-05-18T05:39:27.504Z,7.10
2023-05-18T05:41:56.823Z,6.43
2023-05-18T05:44:27.965Z,6.65
2023-05-18T05:46:57.064Z,6.38
2023-05-18T05:49:26.348Z,6.68
2023-05-18T05:51:55.365Z,6.85
2023-05-18T05:54:24.449Z,6.65
2023-05-18T05:56:53.484Z,6.40
2023-05-18T05:59:23.341Z,7.30
2023-05-18T06:01:54.088Z,6.90
2023-05-18T06:04:23.188Z,7.78
2023-05-18T06:06:52.231Z,7.70
2023-05-18T06:09:21.360Z,7.60
2023-05-18T06:11:50.481Z,6.90
2023-05-18T06:14:19.514Z,7.53
2023-05-18T06:16:48.930Z,7.53
2023-05-18T06:19:19.786Z,6.90
2023-05-18T06:21:48.914Z,7.85
2023-05-18T06:24:17.908Z,8.07
2023-05-18T06:26:46.973Z,8.70
2023-05-18T06:29:16.245Z,8.40
2023-05-18T06:31:45.436Z,8.98
2023-05-18T06:34:14.532Z,8.40
2023-05-18T06:36:45.313Z,7.60
2023-05-18T06:39:14.331Z,8.10
2023-05-18T06:41:43.644Z,8.68
2023-05-18T06:44:12.922Z,8.13
2023-05-18T06:46:42.466Z,8.60
2023-05-18T06:49:11.781Z,8.85
2023-05-18T06:51:40.820Z,8.50
2023-05-18T06:54:11.585Z,9.30
2023-05-18T06:56:40.630Z,8.80
2023-05-18T06:59:09.756Z,8.40
2023-05-18T07:01:39.174Z,8.45
2023-05-18T07:04:08.553Z,8.68
2023-05-18T07:06:37.781Z,8.88
2023-05-18T07:09:08.915Z,9.45
2023-05-18T07:11:41.274Z,9.45
2023-05-18T07:14:10.304Z,9.27
2023-05-18T07:16:40.356Z,9.40
2023-05-18T07:19:09.515Z,9.55
2023-05-18T07:21:38.789Z,10.63
2023-05-18T07:24:08.175Z,10.30
2023-05-18T07:26:38.885Z,10.32
2023-05-18T07:29:08.010Z,9.68
2023-05-18T07:31:40.255Z,10.02
2023-05-18T07:34:09.356Z,9.60
2023-05-18T07:36:38.385Z,10.13
2023-05-18T07:39:07.496Z,10.00
2023-05-18T07:41:37.054Z,9.60
2023-05-18T07:44:07.805Z,10.20
2023-05-18T07:46:36.868Z,10.57
2023-05-18T07:49:05.973Z,11.65
2023-05-18T07:51:35.176Z,10.63
2023-05-18T07:54:04.440Z,10.10
2023-05-18T07:56:33.465Z,9.80
2023-05-18T07:59:02.737Z,10.15
2023-05-18T08:01:33.607Z,11.32
2023-05-18T08:04:02.720Z,10.70
2023-05-18T08:06:32.711Z,11.07
2023-05-18T08:09:01.808Z,11.50
2023-05-18T08:11:30.865Z,10.65
2023-05-18T08:13:59.890Z,11.35
2023-05-18T08:16:29.106Z,10.35
2023-05-18T08:18:59.888Z,11.32
2023-05-18T08:21:29.359Z,11.02
2023-05-18T08:23:58.386Z,10.70
2023-05-18T08:26:28.129Z,10.77
2023-05-18T08:28:57.524Z,10.93
2023-05-18T08:31:26.943Z,11.20
2023-05-18T08:33:56.429Z,10.98
2023-05-18T08:36:27.386Z,10.27
2023-05-18T08:38:56.407Z,10.02
2023-05-18T08:41:30.600Z,11.27
2023-05-18T08:44:05.230Z,10.10
2023-05-18T08:46:37.428Z,10.32
2023-05-18T08:49:07.178Z,10.45
2023-05-18T08:51:38.922Z,10.15
2023-05-18T08:54:09.797Z,10.60
2023-05-18T08:56:41.103Z,10.60
2023-05-18T08:59:12.031Z,10.20
2023-05-18T09:01:41.700Z,11.45
2023-05-18T09:04:11.669Z,10.80
2023-05-18T09:06:43.724Z,10.73
2023-05-18T09:09:14.189Z,10.88
2023-05-18T09:11:43.600Z,11.75
2023-05-18T09:14:12.882Z,10.32
2023-05-18T09:16:42.184Z,11.23
2023-05-18T09:19:11.925Z,10.93
2023-05-18T09:21:42.680Z,11.10
2023-05-18T09:24:12.528Z,10.20
2023-05-18T09:26:41.788Z,10.68
2023-05-18T09:29:21.487Z,11.95
2023-05-18T09:31:50.746Z,10.68
2023-05-18T09:34:20.227Z,10.65
2023-05-18T09:36:58.555Z,11.20
2023-05-18T09:39:27.642Z,11.57
2023-05-18T09:41:59.774Z,11.23
2023-05-18T09:44:34.884Z,10.88
2023-05-18T09:47:12.783Z,11.80
2023-05-18T09:49:42.841Z,10.77
2023-05-18T09:52:13.562Z,12.05
2023-05-18T09:54:42.699Z,10.63
2023-05-18T09:57:11.849Z,11.20
2023-05-18T09:59:41.058Z,11.43
2023-05-18T10:02:14.035Z,11.45
2023-05-18T10:04:45.303Z,11.68
2023-05-18T10:07:22.491Z,11.00
2023-05-18T10:10:09.129Z,10.50
2023-05-18T10:12:42.571Z,11.07
2023-05-18T10:15:15.572Z,11.65
2023-05-18T10:17:57.066Z,11.98
2023-05-18T10:20:29.908Z,12.90
2023-05-18T10:23:06.918Z,12.85
2023-05-18T10:25:39.289Z,12.93
2023-05-18T10:28:11.475Z,14.07
2023-05-18T10:30:43.411Z,14.43
2023-05-18T10:33:21.032Z,13.25
2023-05-18T10:35:57.612Z,12.40
2023-05-18T10:38:29.552Z,12.82
2023-05-18T10:41:01.180Z,13.05
2023-05-18T10:43:30.718Z,13.52
2023-05-18T10:46:02.276Z,13.65
2023-05-18T10:48:32.259Z,12.25
2023-05-18T10:51:01.610Z,13.75
2023-05-18T10:53:32.499Z,13.80
2023-05-18T10:56:02.522Z,13.20
2023-05-18T10:58:33.604Z,13.93
2023-05-18T11:01:07.166Z,14.82
2023-05-18T11:03:39.230Z,15.32
2023-05-18T11:06:10.998Z,14.77
2023-05-18T11:08:48.585Z,14.75
2023-05-18T11:11:19.446Z,14.70
2023-05-18T11:13:52.150Z,15.40
2023-05-18T11:16:21.621Z,15.05
2023-05-18T11:18:52.290Z,15.05
2023-05-18T11:21:36.780Z,15.68
2023-05-18T11:24:27.045Z,15.65
2023-05-18T11:26:58.205Z,16.02
2023-05-18T11:29:35.135Z,16.13
2023-05-18T11:32:05.124Z,16.23
2023-05-18T11:34:41.020Z,16.85
2023-05-18T11:37:11.412Z,16.58
2023-05-18T11:39:55.489Z,16.15
2023-05-18T11:42:37.398Z,16.13
2023-05-18T11:45:11.544Z,16.52
2023-05-18T11:47:41.822Z,16.63
2023-05-18T11:50:13.077Z,16.23
2023-05-18T11:52:49.158Z,16.92
2023-05-18T11:55:21.177Z,15.77
2023-05-18T11:57:53.149Z,16.17
2023-05-18T12:00:24.914Z,17.20
2023-05-18T12:02:57.542Z,16.05
2023-05-18T12:05:31.296Z,17.10
2023-05-18T12:08:01.201Z,15.98
2023-05-18T12:10:32.282Z,16.25
2023-05-18T12:13:02.923Z,17.38
2023-05-18T12:15:32.456Z,16.80
2023-05-18T12:18:01.861Z,17.67
2023-05-18T12:20:32.023Z,16.90
2023-05-18T12:23:02.055Z,17.20
2023-05-18T12:25:33.073Z,18.63
2023-05-18T12:28:03.194Z,18.35
2023-05-18T12:30:39.186Z,16.95
2023-05-18T12:33:08.887Z,16.60
2023-05-18T12:35:38.060Z,17.58
2023-05-18T12:38:08.310Z,17.13
2023-05-18T12:40:47.473Z,18.08
2023-05-18T12:43:16.662Z,17.85
2023-05-18T12:45:46.353Z,18.00
2023-05-18T12:48:15.966Z,17.98
2023-05-18T12:50:49.098Z,18.75
2023-05-18T12:53:18.756Z,20.08
2023-05-18T12:55:58.914Z,19.67
2023-05-18T12:58:28.124Z,18.25
2023-05-18T13:00:57.216Z,17.95
2023-05-18T13:03:26.332Z,18.92
2023-05-18T13:06:05.414Z,19.38
2023-05-18T13:08:35.238Z,20.02
2023-05-18T13:11:13.692Z,18.10
2023-05-18T13:14:01.363Z,18.80
2023-05-18T13:16:31.067Z,18.15
2023-05-18T13:19:01.877Z,17.02
2023-05-18T13:21:31.495Z,17.25
2023-05-18T13:24:00.653Z,16.33
2023-05-18T13:26:32.037Z,16.10
2023-05-18T13:29:01.178Z,16.33
2023-05-18T13:31:30.525Z,15.88
2023-05-18T13:33:59.812Z,15.98
2023-05-18T13:36:30.549Z,14.85
2023-05-18T13:38:59.605Z,15.63
2023-05-18T13:41:28.735Z,15.82
2023-05-18T13:43:59.421Z,15.70
2023-05-18T13:46:28.517Z,16.00
2023-05-18T13:48:57.497Z,17.45
2023-05-18T13:51:26.707Z,17.17
2023-05-18T13:53:55.999Z,18.17
2023-05-18T13:56:25.100Z,17.60
2023-05-18T13:58:54.273Z,18.10
2023-05-18T14:01:25.063Z,18.92
2023-05-18T14:03:54.218Z,18.90
2023-05-18T14:06:24.175Z,19.02
2023-05-18T14:08:53.284Z,21.00
2023-05-18T14:11:22.652Z,21.33
2023-05-18T14:13:51.894Z,21.20
2023-05-18T14:16:21.026Z,22.35
2023-05-18T14:18:51.941Z,20.58
2023-05-18T14:21:21.045Z,21.10
2023-05-18T14:23:50.161Z,20.73
2023-05-18T14:26:19.295Z,21.65
2023-05-18T14:28:48.368Z,22.73
2023-05-18T14:31:17.422Z,22.77
2023-05-18T14:33:46.593Z,23.10
2023-05-18T14:36:18.294Z,23.83
2023-05-18T14:38:48.514Z,22.80
2023-05-18T14:41:17.523Z,23.27
2023-05-18T14:43:48.177Z,22.60
2023-05-18T14:46:17.355Z,22.02
2023-05-18T14:48:46.597Z,21.92
2023-05-18T14:51:19.402Z,21.63
2023-05-18T14:53:48.510Z,22.00
2023-05-18T14:56:17.797Z,22.73
2023-05-18T14:58:46.894Z,22.23
2023-05-18T15:01:16.010Z,22.92
2023-05-18T15:03:45.436Z,22.63
2023-05-18T15:06:14.807Z,22.23
2023-05-18T15:08:46.352Z,22.35
2023-05-18T15:11:15.400Z,22.65
2023-05-18T15:13:44.948Z,22.20
2023-05-18T15:16:15.613Z,21.95
2023-05-18T15:18:44.797Z,23.45
2023-05-18T15:21:14.014Z,22.17
2023-05-18T15:23:44.788Z,22.60
2023-05-18T15:26:14.578Z,22.13
2023-05-18T15:28:45.821Z,22.05
2023-05-18T15:31:15.000Z,21.50
2023-05-18T15:33:44.636Z,23.15
2023-05-18T15:36:13.970Z,23.17
2023-05-18T15:38:44.745Z,23.77
2023-05-18T15:41:13.937Z,22.02
2023-05-18T15:43:43.227Z,23.48
2023-05-18T15:46:12.377Z,24.02
2023-05-18T15:48:41.612Z,23.42
2023-05-18T15:51:10.736Z,22.10
2023-05-18T15:53:39.788Z,21.58
2023-05-18T15:56:11.129Z,21.48
2023-05-18T15:58:40.286Z,23.15
2023-05-18T16:01:09.429Z,21.55
2023-05-18T16:03:38.645Z,22.15
2023-05-18T16:06:08.100Z,21.00
2023-05-18T16:08:37.346Z,22.13
2023-05-18T16:11:07.879Z,21.95
2023-05-18T16:13:38.591Z,22.15
2023-05-18T16:16:11.025Z,20.83
2023-05-18T16:18:40.154Z,24.35
2023-05-18T16:21:09.668Z,25.38
2023-05-18T16:23:38.826Z,23.10
2023-05-18T16:26:07.905Z,21.80
2023-05-18T16:28:38.677Z,21.60
2023-05-18T16:31:12.713Z,22.90
2023-05-18T16:33:42.103Z,22.05
2023-05-18T16:36:12.299Z,22.63
2023-05-18T16:38:41.558Z,22.67
2023-05-18T16:41:12.224Z,25.10
2023-05-18T16:43:42.971Z,24.55
2023-05-18T16:46:12.213Z,23.83
2023-05-18T16:48:41.543Z,24.27
2023-05-18T16:51:10.722Z,24.00
2023-05-18T16:53:39.778Z,25.70
2023-05-18T16:56:08.948Z,21.73
2023-05-18T16:58:37.993Z,21.20
2023-05-18T17:01:19.373Z,23.05
2023-05-18T17:03:56.378Z,23.73
2023-05-18T17:06:25.946Z,22.88
2023-05-18T17:08:58.811Z,22.75
2023-05-18T17:11:28.519Z,24.90
2023-05-18T17:14:00.560Z,21.17
2023-05-18T17:16:33.953Z,22.02
2023-05-18T17:19:03.089Z,22.38
2023-05-18T17:21:32.195Z,20.52
2023-05-18T17:24:01.408Z,21.33
2023-05-18T17:26:34.106Z,21.42
2023-05-18T17:29:03.344Z,21.10
2023-05-18T17:31:34.249Z,24.27
2023-05-18T17:34:03.349Z,19.73
2023-05-18T17:36:32.610Z,20.88
2023-05-18T17:39:01.906Z,22.70
2023-05-18T17:41:35.631Z,21.23
2023-05-18T17:44:04.832Z,20.50
2023-05-18T17:46:35.676Z,19.92
2023-05-18T17:49:05.800Z,19.25
2023-05-18T17:51:34.810Z,19.27
2023-05-18T17:54:03.912Z,22.42
2023-05-18T17:56:33.047Z,19.38
2023-05-18T17:59:02.822Z,16.40
2023-05-18T18:01:32.498Z,18.85
2023-05-18T18:04:03.535Z,15.60
2023-05-18T18:06:36.368Z,15.35
2023-05-18T18:09:08.575Z,16.08
2023-05-18T18:11:37.745Z,15.13
2023-05-18T18:14:07.033Z,17.17
2023-05-18T18:16:36.374Z,16.38
2023-05-18T18:19:07.272Z,16.65
2023-05-18T18:21:36.453Z,16.50
2023-05-18T18:24:06.117Z,17.45
2023-05-18T18:26:41.143Z,15.10
2023-05-18T18:29:10.174Z,14.27
2023-05-18T18:31:39.241Z,14.85
2023-05-18T18:34:12.119Z,14.73
2023-05-18T18:36:41.937Z,13.45
2023-05-18T18:39:11.590Z,13.70
2023-05-18T18:41:43.856Z,13.82
2023-05-18T18:44:12.898Z,12.93
2023-05-18T18:46:42.209Z,13.60
2023-05-18T18:49:13.148Z,12.50
2023-05-18T18:51:42.304Z,12.55
2023-05-18T18:54:11.732Z,13.05
2023-05-18T18:56:40.910Z,11.40
2023-05-18T18:59:09.934Z,10.73
2023-05-18T19:01:39.332Z,11.55
2023-05-18T19:04:08.926Z,11.48
2023-05-18T19:06:40.342Z,11.73
2023-05-18T19:09:12.156Z,12.23
2023-05-18T19:11:55.566Z,12.82
2023-05-18T19:14:26.173Z,10.50
2023-05-18T19:16:55.938Z,11.95
2023-05-18T19:19:25.533Z,12.30
2023-05-18T19:21:56.332Z,13.05
2023-05-18T19:24:25.322Z,12.43
2023-05-18T19:26:54.491Z,12.70
2023-05-18T19:29:26.202Z,10.35
2023-05-18T19:31:56.900Z,12.35
2023-05-18T19:34:26.473Z,12.85
2023-05-18T19:36:57.183Z,12.07
2023-05-18T19:39:26.308Z,14.35
2023-05-18T19:41:55.490Z,12.90
2023-05-18T19:44:24.541Z,13.40
2023-05-18T19:46:53.725Z,10.90
2023-05-18T19:49:22.757Z,13.48
2023-05-18T19:51:51.817Z,12.98
2023-05-18T19:54:22.855Z,13.68
2023-05-18T19:56:51.928Z,12.30
2023-05-18T19:59:20.976Z,12.13
2023-05-18T20:01:50.567Z,12.52
2023-05-18T20:04:24.282Z,11.75
2023-05-18T20:06:53.615Z,13.43
2023-05-18T20:09:24.309Z,12.95
2023-05-18T20:11:54.237Z,12.48
2023-05-18T20:14:23.397Z,12.50
2023-05-18T20:16:53.278Z,13.10
2023-05-18T20:19:22.919Z,11.00
2023-05-18T20:21:52.064Z,10.82
2023-05-18T20:24:21.204Z,10.55
2023-05-18T20:26:52.123Z,10.38
2023-05-18T20:29:21.276Z,11.05
2023-05-18T20:31:51.003Z,10.45
2023-05-18T20:34:20.235Z,11.30
2023-05-18T20:36:49.339Z,10.43
2023-05-18T20:39:18.549Z,9.40
2023-05-18T20:41:48.659Z,10.02
2023-05-18T20:44:23.950Z,10.13
2023-05-18T20:46:53.959Z,10.88
2023-05-18T20:49:23.125Z,10.95
2023-05-18T20:51:52.374Z,9.35
2023-05-18T20:54:24.473Z,9.25
2023-05-18T20:56:53.735Z,10.55
2023-05-18T20:59:24.500Z,10.15
2023-05-18T21:01:53.785Z,10.13
2023-05-18T21:04:23.051Z,11.02
2023-05-18T21:06:52.212Z,9.23
2023-05-18T21:09:21.596Z,9.30
2023-05-18T21:11:50.979Z,9.73
2023-05-18T21:14:20.338Z,10.13
2023-05-18T21:16:51.238Z,10.85
2023-05-18T21:19:20.348Z,8.40
2023-05-18T21:21:49.542Z,7.57
2023-05-18T21:24:18.746Z,9.52
2023-05-18T21:26:48.076Z,9.77
2023-05-18T21:29:17.358Z,9.00
2023-05-18T21:31:46.585Z,9.93
2023-05-18T21:34:17.504Z,8.82
2023-05-18T21:36:46.688Z,9.52
2023-05-18T21:39:15.756Z,9.57
2023-05-18T21:41:45.352Z,9.30
2023-05-18T21:44:14.931Z,10.50
2023-05-18T21:46:44.393Z,9.23
2023-05-18T21:49:13.500Z,9.45
2023-05-18T21:51:44.217Z,9.40
2023-05-18T21:54:13.280Z,8.98
2023-05-18T21:56:42.908Z,9.40
2023-05-18T21:59:12.017Z,7.95
2023-05-18T22:01:41.849Z,9.07
2023-05-18T22:04:10.960Z,8.20
2023-05-18T22:06:40.068Z,8.90
2023-05-18T22:09:11.031Z,8.48
2023-05-18T22:11:40.157Z,8.45
2023-05-18T22:14:09.241Z,9.60
2023-05-18T22:16:38.747Z,8.70
2023-05-18T22:19:07.774Z,8.93
2023-05-18T22:21:36.794Z,8.27
2023-05-18T22:24:06.308Z,8.93
2023-05-18T22:26:37.814Z,10.13
2023-05-18T22:29:07.324Z,9.80
2023-05-18T22:31:36.561Z,8.48
2023-05-18T22:34:05.672Z,11.55
2023-05-18T22:36:36.126Z,9.55
2023-05-18T22:39:06.309Z,9.55
2023-05-18T22:41:37.006Z,9.75
2023-05-18T22:44:06.348Z,9.43
2023-05-18T22:46:35.451Z,8.55
2023-05-18T22:49:06.327Z,8.68
2023-05-18T22:51:36.484Z,8.77
2023-05-18T22:54:05.599Z,8.48
2023-05-18T22:56:37.118Z,8.20
2023-05-18T22:59:07.899Z,9.05
2023-05-18T23:01:38.557Z,9.40
2023-05-18T23:04:08.110Z,8.63
2023-05-18T23:06:37.133Z,8.93
2023-05-18T23:09:06.300Z,7.85
2023-05-18T23:11:37.758Z,9.68
2023-05-18T23:14:06.755Z,8.77
2023-05-18T23:16:35.913Z,8.70
2023-05-18T23:19:05.045Z,8.57
2023-05-18T23:21:34.316Z,8.70
2023-05-18T23:24:03.460Z,9.50
2023-05-18T23:26:32.537Z,8.63
2023-05-18T23:29:03.297Z,9.02
2023-05-18T23:31:32.431Z,9.10
2023-05-18T23:34:02.077Z,8.80
2023-05-18T23:36:35.826Z,8.95
2023-05-18T23:39:05.872Z,9.10
2023-05-18T23:41:37.034Z,9.18
2023-05-18T23:44:08.540Z,9.35
2023-05-18T23:46:38.257Z,10.20
2023-05-18T23:49:07.882Z,8.32
2023-05-18T23:51:38.804Z,9.35
2023-05-18T23:54:08.486Z,8.23
2023-05-18T23:56:38.121Z,8.20
2023-05-18T23:59:10.893Z,9.32
